Time;durP1;ratioP1;P1;durP2;ratioP2;P2;SDS_P1;SDS_P2;PMS_P1;PMS_P2;Temp;Humidity;BMP_temperature;BMP_pressure;BME280_temperature;BME280_humidity;BME280_pressure;Samples;Min_cycle;Max_cycle;Signal;HPM_P1;HPM_P2
2021/02/05 00:00:29;;;;;;;1.3;1.1;;;;;;;;;;;;;
2021/02/05 00:02:56;;;;;;;1.7;1.1;;;;;;;;;;;;;
2021/02/05 00:05:22;;;;;;;2.5;1.2;;;;;;;;;;;;;
2021/02/05 00:07:48;;;;;;;1.4;1.2;;;;;;;;;;;;;
2021/02/05 00:10:15;;;;;;;2.5;1.8;;;;;;;;;;;;;
2021/02/05 00:12:45;;;;;;;2.8;1.5;;;;;;;;;;;;;
2021/02/05 00:15:19;;;;;;;3.5;1.8;;;;;;;;;;;;;
2021/02/05 00:17:51;;;;;;;4.6;1.9;;;;;;;;;;;;;
2021/02/05 00:20:20;;;;;;;5.3;2.1;;;;;;;;;;;;;
2021/02/05 00:22:45;;;;;;;4.3;1.7;;;;;;;;;;;;;
2021/02/05 00:25:14;;;;;;;3.2;1.6;;;;;;;;;;;;;
2021/02/05 00:27:42;;;;;;;2.7;1.7;;;;;;;;;;;;;
2021/02/05 00:30:07;;;;;;;3.2;2;;;;;;;;;;;;;
2021/02/05 00:32:33;;;;;;;6;1.9;;;;;;;;;;;;;
2021/02/05 00:34:58;;;;;;;1.5;1.1;;;;;;;;;;;;;
2021/02/05 00:37:23;;;;;;;3.2;1.5;;;;;;;;;;;;;
2021/02/05 00:39:48;;;;;;;1.4;1.1;;;;;;;;;;;;;
2021/02/05 00:42:14;;;;;;;4.5;1.2;;;;;;;;;;;;;
2021/02/05 00:44:40;;;;;;;3;1.2;;;;;;;;;;;;;
2021/02/05 00:47:05;;;;;;;4.5;2.4;;;;;;;;;;;;;
2021/02/05 00:49:30;;;;;;;1.4;1;;;;;;;;;;;;;
2021/02/05 00:51:57;;;;;;;1.2;0.9;;;;;;;;;;;;;
2021/02/05 00:54:22;;;;;;;2.4;1;;;;;;;;;;;;;
2021/02/05 00:56:47;;;;;;;1.4;1;;;;;;;;;;;;;
2021/02/05 00:59:13;;;;;;;3.2;0.9;;;;;;;;;;;;;
2021/02/05 01:01:39;;;;;;;1.2;0.8;;;;;;;;;;;;;
2021/02/05 01:04:04;;;;;;;2;1.3;;;;;;;;;;;;;
2021/02/05 01:06:30;;;;;;;1.8;1.1;;;;;;;;;;;;;
2021/02/05 01:08:55;;;;;;;1.8;1.2;;;;;;;;;;;;;
2021/02/05 01:11:24;;;;;;;3.3;1.3;;;;;;;;;;;;;
2021/02/05 01:13:49;;;;;;;0.6;0.6;;;;;;;;;;;;;
2021/02/05 01:16:14;;;;;;;1;0.9;;;;;;;;;;;;;
2021/02/05 01:18:39;;;;;;;1.4;0.8;;;;;;;;;;;;;
2021/02/05 01:21:05;;;;;;;2;1;;;;;;;;;;;;;
2021/02/05 01:23:30;;;;;;;2.9;1.5;;;;;;;;;;;;;
2021/02/05 01:25:56;;;;;;;1.6;0.9;;;;;;;;;;;;;
2021/02/05 01:28:21;;;;;;;1;0.8;;;;;;;;;;;;;
2021/02/05 01:30:48;;;;;;;1.3;0.9;;;;;;;;;;;;;
2021/02/05 01:33:13;;;;;;;2.1;1.1;;;;;;;;;;;;;
2021/02/05 01:35:39;;;;;;;6.4;1.1;;;;;;;;;;;;;
2021/02/05 01:38:05;;;;;;;0.9;0.8;;;;;;;;;;;;;
2021/02/05 01:40:30;;;;;;;1.4;1;;;;;;;;;;;;;
2021/02/05 01:42:55;;;;;;;1.7;1;;;;;;;;;;;;;
2021/02/05 01:45:21;;;;;;;1.5;0.8;;;;;;;;;;;;;
2021/02/05 01:47:46;;;;;;;1;0.8;;;;;;;;;;;;;
2021/02/05 01:50:13;;;;;;;0.8;0.8;;;;;;;;;;;;;
2021/02/05 01:52:38;;;;;;;1.2;0.8;;;;;;;;;;;;;
2021/02/05 01:55:09;;;;;;;1.4;0.9;;;;;;;;;;;;;
2021/02/05 01:57:39;;;;;;;1.2;0.9;;;;;;;;;;;;;
2021/02/05 02:00:09;;;;;;;1.6;0.9;;;;;;;;;;;;;
2021/02/05 02:02:36;;;;;;;1.4;1.1;;;;;;;;;;;;;
2021/02/05 02:05:01;;;;;;;4;1;;;;;;;;;;;;;
2021/02/05 02:07:26;;;;;;;1;0.6;;;;;;;;;;;;;
2021/02/05 02:09:51;;;;;;;0.8;0.6;;;;;;;;;;;;;
2021/02/05 02:12:19;;;;;;;1.5;1;;;;;;;;;;;;;
2021/02/05 02:14:44;;;;;;;0.5;0.5;;;;;;;;;;;;;
2021/02/05 02:17:10;;;;;;;0.7;0.6;;;;;;;;;;;;;
2021/02/05 02:19:36;;;;;;;0.7;0.6;;;;;;;;;;;;;
2021/02/05 02:22:01;;;;;;;2;0.8;;;;;;;;;;;;;
2021/02/05 02:24:26;;;;;;;1.6;0.6;;;;;;;;;;;;;
2021/02/05 02:26:53;;;;;;;1.3;0.6;;;;;;;;;;;;;
2021/02/05 02:29:18;;;;;;;1;0.7;;;;;;;;;;;;;
2021/02/05 02:31:44;;;;;;;1.3;0.8;;;;;;;;;;;;;
2021/02/05 02:34:09;;;;;;;2.5;0.8;;;;;;;;;;;;;
2021/02/05 02:36:36;;;;;;;0.6;0.5;;;;;;;;;;;;;
2021/02/05 02:39:01;;;;;;;1.8;1;;;;;;;;;;;;;
2021/02/05 02:41:27;;;;;;;2.2;0.7;;;;;;;;;;;;;
2021/02/05 02:43:52;;;;;;;0.6;0.5;;;;;;;;;;;;;
2021/02/05 02:46:17;;;;;;;0.8;0.6;;;;;;;;;;;;;
2021/02/05 02:48:42;;;;;;;1.1;0.8;;;;;;;;;;;;;
2021/02/05 02:51:08;;;;;;;1.1;0.9;;;;;;;;;;;;;
2021/02/05 02:53:33;;;;;;;0.7;0.7;;;;;;;;;;;;;
2021/02/05 02:55:59;;;;;;;5.2;1.1;;;;;;;;;;;;;
2021/02/05 02:58:24;;;;;;;1.4;0.9;;;;;;;;;;;;;
2021/02/05 03:00:50;;;;;;;4.3;0.7;;;;;;;;;;;;;
2021/02/05 03:03:15;;;;;;;1.7;0.9;;;;;;;;;;;;;
2021/02/05 03:05:42;;;;;;;1.8;1;;;;;;;;;;;;;
2021/02/05 03:08:07;;;;;;;1.6;1;;;;;;;;;;;;;
2021/02/05 03:10:36;;;;;;;1.3;0.6;;;;;;;;;;;;;
2021/02/05 03:13:04;;;;;;;0.8;0.7;;;;;;;;;;;;;
2021/02/05 03:15:29;;;;;;;1.7;1.2;;;;;;;;;;;;;
2021/02/05 03:17:55;;;;;;;0.9;0.7;;;;;;;;;;;;;
2021/02/05 03:20:20;;;;;;;2.3;1;;;;;;;;;;;;;
2021/02/05 03:22:48;;;;;;;1.4;0.8;;;;;;;;;;;;;
2021/02/05 03:25:13;;;;;;;1.8;0.9;;;;;;;;;;;;;
2021/02/05 03:27:38;;;;;;;1.7;0.6;;;;;;;;;;;;;
2021/02/05 03:30:03;;;;;;;0.6;0.6;;;;;;;;;;;;;
2021/02/05 03:32:29;;;;;;;1.2;0.6;;;;;;;;;;;;;
2021/02/05 03:34:54;;;;;;;0.8;0.6;;;;;;;;;;;;;
2021/02/05 03:37:20;;;;;;;1.2;0.8;;;;;;;;;;;;;
2021/02/05 03:39:45;;;;;;;1.1;0.6;;;;;;;;;;;;;
2021/02/05 03:42:12;;;;;;;0.5;0.4;;;;;;;;;;;;;
2021/02/05 03:44:37;;;;;;;0.8;0.6;;;;;;;;;;;;;
2021/02/05 03:47:02;;;;;;;0.5;0.5;;;;;;;;;;;;;
2021/02/05 03:49:27;;;;;;;1.4;0.6;;;;;;;;;;;;;
2021/02/05 03:51:53;;;;;;;0.7;0.7;;;;;;;;;;;;;
2021/02/05 03:54:18;;;;;;;0.5;0.5;;;;;;;;;;;;;
2021/02/05 03:56:44;;;;;;;2.2;0.7;;;;;;;;;;;;;
2021/02/05 03:59:09;;;;;;;3.2;1.4;;;;;;;;;;;;;
2021/02/05 04:02:31;;;;;;;0.7;0.7;;;;;;;2.92;89.47461;933.3211;;;;
2021/02/05 04:05:01;;;;;;;6;0.9;;;;;;;3.07;88.65234;933.3831;;;;
2021/02/05 04:07:27;;;;;;;1.4;1.2;;;;;;;2.95;88.7832;933.3619;;;;
2021/02/05 04:09:56;;;;;;;2.2;1.2;;;;;;;3.01;88.53027;933.3619;;;;
2021/02/05 04:12:21;;;;;;;2.6;1.5;;;;;;;3.07;88.0127;933.2918;;;;
2021/02/05 04:14:52;;;;;;;2.4;1.4;;;;;;;3.13;87.88965;933.2062;;;;
2021/02/05 04:17:23;;;;;;;0.9;0.8;;;;;;;3.19;87.64648;933.3322;;;;
2021/02/05 04:19:53;;;;;;;0.6;0.6;;;;;;;3.2;86.94043;933.4089;;;;
2021/02/05 04:22:18;;;;;;;1.5;1;;;;;;;3.16;86.94434;933.4558;;;;
2021/02/05 04:24:48;;;;;;;0.5;0.5;;;;;;;3.16;87.21191;933.4156;;;;
2021/02/05 04:27:14;;;;;;;1.2;0.9;;;;;;;3.18;87.09473;933.3959;;;;
2021/02/05 04:29:44;;;;;;;2.5;0.8;;;;;;;3.08;87.29883;933.4448;;;;
2021/02/05 04:32:09;;;;;;;0.8;0.7;;;;;;;2.79;88.54883;933.3822;;;;
2021/02/05 04:34:40;;;;;;;1.2;0.9;;;;;;;2.71;89.28516;933.3844;;;;
2021/02/05 04:37:11;;;;;;;2.1;1;;;;;;;2.78;89.26465;933.3173;;;;
2021/02/05 04:39:41;;;;;;;0.7;0.7;;;;;;;2.75;89.13574;933.3542;;;;
2021/02/05 04:42:08;;;;;;;1.9;1.1;;;;;;;2.89;88.77344;933.4269;;;;
2021/02/05 04:44:37;;;;;;;0.6;0.5;;;;;;;2.97;88.61133;933.4373;;;;
2021/02/05 04:47:03;;;;;;;0.9;0.8;;;;;;;3.06;88.15723;933.4551;;;;
2021/02/05 04:49:34;;;;;;;1.4;0.7;;;;;;;3.19;87.41211;933.3301;;;;
2021/02/05 04:52:02;;;;;;;2;0.9;;;;;;;3.24;87.04883;933.2797;;;;
2021/02/05 04:54:28;;;;;;;1;0.8;;;;;;;3.3;86.64648;933.3649;;;;
2021/02/05 04:56:56;;;;;;;1.4;1;;;;;;;3.11;86.95605;933.3976;;;;
2021/02/05 04:59:21;;;;;;;2.3;1.3;;;;;;;2.95;87.66309;933.4399;;;;
2021/02/05 05:01:49;;;;;;;2;1.2;;;;;;;2.82;88.54395;933.4956;;;;
2021/02/05 05:04:14;;;;;;;3.1;1.3;;;;;;;2.81;88.64453;933.3389;;;;
2021/02/05 05:06:39;;;;;;;4.5;1.3;;;;;;;2.8;88.60938;933.4425;;;;
2021/02/05 05:09:05;;;;;;;2.5;0.8;;;;;;;2.71;89.02539;933.2711;;;;
2021/02/05 05:11:31;;;;;;;1.2;0.8;;;;;;;2.78;88.95117;933.3;;;;
2021/02/05 05:14:01;;;;;;;2.5;1;;;;;;;2.85;88.78418;933.2166;;;;
2021/02/05 05:16:30;;;;;;;0.6;0.6;;;;;;;2.88;88.56934;933.2578;;;;
2021/02/05 05:18:55;;;;;;;0.6;0.6;;;;;;;2.98;88.08594;933.3088;;;;
2021/02/05 05:21:20;;;;;;;9.2;1.1;;;;;;;2.95;87.85352;933.3314;;;;
2021/02/05 05:23:50;;;;;;;1.8;1;;;;;;;3;87.75098;933.3217;;;;
2021/02/05 05:26:16;;;;;;;2.4;1;;;;;;;2.97;87.65527;933.3798;;;;
2021/02/05 05:28:46;;;;;;;2.7;1;;;;;;;2.89;87.76367;933.4067;;;;
2021/02/05 05:31:15;;;;;;;1.9;1.1;;;;;;;2.71;88.28711;933.4356;;;;
2021/02/05 05:33:40;;;;;;;2;1.5;;;;;;;2.63;88.99902;933.407;;;;
2021/02/05 05:36:05;;;;;;;2.5;1.6;;;;;;;2.43;90.16699;933.4633;;;;
2021/02/05 05:38:30;;;;;;;1.9;1.3;;;;;;;2.48;90.13184;933.4892;;;;
2021/02/05 05:40:58;;;;;;;2.5;1.1;;;;;;;2.38;90.72754;933.3577;;;;
2021/02/05 05:43:28;;;;;;;1;0.7;;;;;;;2.36;90.91406;933.4617;;;;
2021/02/05 05:45:53;;;;;;;1.6;0.9;;;;;;;2.36;91.04785;933.413;;;;
2021/02/05 05:48:24;;;;;;;1.7;1.4;;;;;;;2.37;91.13086;933.4338;;;;
2021/02/05 05:50:53;;;;;;;2;1.3;;;;;;;2.52;90.53223;933.3789;;;;
2021/02/05 05:53:18;;;;;;;1.7;1.4;;;;;;;2.53;89.94238;933.3809;;;;
2021/02/05 05:55:45;;;;;;;1.4;1.1;;;;;;;2.57;89.33301;933.3798;;;;
2021/02/05 05:58:10;;;;;;;2.4;1.2;;;;;;;2.6;88.89063;933.4766;;;;
2021/02/05 06:00:39;;;;;;;1.1;0.9;;;;;;;2.64;88.56152;933.4905;;;;
2021/02/05 06:03:05;;;;;;;1.2;0.9;;;;;;;2.61;88.30078;933.5425;;;;
2021/02/05 06:05:33;;;;;;;3.6;1.1;;;;;;;2.52;88.8291;933.6217;;;;
2021/02/05 06:07:58;;;;;;;2.4;1.7;;;;;;;2.58;88.57324;933.6536;;;;
2021/02/05 06:10:32;;;;;;;6.7;2.8;;;;;;;2.6;88.09473;933.6448;;;;
2021/02/05 06:13:05;;;;;;;6.9;2.9;;;;;;;2.46;88.7168;933.63;;;;
2021/02/05 06:15:38;;;;;;;1.7;1.1;;;;;;;2.4;89.33301;933.6739;;;;
2021/02/05 06:18:09;;;;;;;1.9;0.9;;;;;;;2.32;90.06641;933.6089;;;;
2021/02/05 06:20:37;;;;;;;3;1.2;;;;;;;2.32;90.12207;933.7849;;;;
2021/02/05 06:23:05;;;;;;;1.6;1;;;;;;;2.31;90.12891;933.8079;;;;
2021/02/05 06:25:38;;;;;;;7.2;0.8;;;;;;;2.39;89.80859;933.765;;;;
2021/02/05 06:28:07;;;;;;;1.2;1;;;;;;;2.48;89.5293;933.8014;;;;
2021/02/05 06:30:41;;;;;;;5.4;2.3;;;;;;;2.6;89.14844;933.8514;;;;
2021/02/05 06:33:06;;;;;;;13;6.9;;;;;;;2.72;88.39063;933.741;;;;
2021/02/05 06:35:34;;;;;;;15.6;6.1;;;;;;;2.75;89.30371;933.7166;;;;
2021/02/05 06:37:59;;;;;;;6.1;3.3;;;;;;;2.8;88.14746;933.7651;;;;
2021/02/05 06:40:29;;;;;;;3.8;2.2;;;;;;;2.92;87.24023;933.8233;;;;
2021/02/05 06:42:54;;;;;;;4;2.7;;;;;;;2.82;87.17578;933.8644;;;;
2021/02/05 06:45:21;;;;;;;2.5;1.7;;;;;;;2.81;87.375;933.9025;;;;
2021/02/05 06:47:47;;;;;;;3.5;1.7;;;;;;;2.84;87.11328;933.8625;;;;
2021/02/05 06:50:13;;;;;;;2.4;1.5;;;;;;;2.85;86.6875;933.9336;;;;
2021/02/05 06:52:38;;;;;;;2.2;1.7;;;;;;;2.72;87.05371;933.9914;;;;
2021/02/05 06:55:11;;;;;;;4.8;1.9;;;;;;;2.6;87.71387;933.9984;;;;
2021/02/05 06:57:37;;;;;;;3;2;;;;;;;2.47;88.42676;934.0258;;;;
2021/02/05 07:00:08;;;;;;;3;2;;;;;;;2.56;88.49121;934.0034;;;;
2021/02/05 07:02:34;;;;;;;3.8;2.2;;;;;;;2.53;88.77637;934.0214;;;;
2021/02/05 07:05:01;;;;;;;5.2;2.7;;;;;;;2.55;88.76758;934.0053;;;;
2021/02/05 07:07:26;;;;;;;4.3;2.7;;;;;;;2.56;88.53516;933.9523;;;;
2021/02/05 07:09:51;;;;;;;6.1;2.9;;;;;;;2.63;89.7168;934.0742;;;;
2021/02/05 07:12:17;;;;;;;5.9;3;;;;;;;2.71;88.52051;934.0995;;;;
2021/02/05 07:14:47;;;;;;;4.2;2.7;;;;;;;2.63;88.13379;934.1394;;;;
2021/02/05 07:17:13;;;;;;;4.6;2.5;;;;;;;2.62;88.51367;934.1202;;;;
2021/02/05 07:19:38;;;;;;;3.8;2;;;;;;;2.54;88.86816;934.1742;;;;
2021/02/05 07:22:03;;;;;;;3.2;1.7;;;;;;;2.57;89.21191;934.2113;;;;
2021/02/05 07:24:33;;;;;;;3.3;1.8;;;;;;;2.75;90.97461;934.2745;;;;
2021/02/05 07:26:58;;;;;;;2.5;1.9;;;;;;;2.91;89.5293;934.3837;;;;
2021/02/05 07:29:23;;;;;;;5.9;2.3;;;;;;;3.13;88.44141;934.3963;;;;
2021/02/05 07:31:50;;;;;;;2.9;2.1;;;;;;;3.28;86.34961;934.4137;;;;
2021/02/05 07:34:15;;;;;;;1.9;1.7;;;;;;;3.38;85.58496;934.4381;;;;
2021/02/05 07:36:40;;;;;;;3.9;2.2;;;;;;;3.52;84.43359;934.4235;;;;
2021/02/05 07:39:06;;;;;;;6.5;2.2;;;;;;;3.62;83.68945;934.4598;;;;
2021/02/05 07:41:31;;;;;;;2.8;1.8;;;;;;;3.85;83.24023;934.4423;;;;
2021/02/05 07:43:58;;;;;;;4.2;2.3;;;;;;;4.2;82.07227;934.4601;;;;
2021/02/05 07:46:23;;;;;;;5.1;2.4;;;;;;;4.48;80.45996;934.4436;;;;
2021/02/05 07:48:50;;;;;;;2.8;2;;;;;;;4.78;78.90527;934.3158;;;;
2021/02/05 07:51:15;;;;;;;3.2;1.9;;;;;;;5.1;78.37891;934.4961;;;;
2021/02/05 07:53:43;;;;;;;5.1;2.8;;;;;;;5.53;76.58301;934.3949;;;;
2021/02/05 07:56:08;;;;;;;2.3;1.8;;;;;;;5.92;74.8457;934.3369;;;;
2021/02/05 07:58:35;;;;;;;3;1.8;;;;;;;6.54;72.61328;934.4533;;;;
2021/02/05 08:01:01;;;;;;;2.3;1.4;;;;;;;7.08;70.82324;934.442;;;;
2021/02/05 08:03:27;;;;;;;2.6;1.4;;;;;;;7.39;68.6875;934.432;;;;
2021/02/05 08:05:51;;;;;;;2;1.2;;;;;;;7.65;67.18652;934.4855;;;;
2021/02/05 08:08:18;;;;;;;2.2;1.3;;;;;;;7.8;65.92871;934.4392;;;;
2021/02/05 08:10:42;;;;;;;2.1;1.6;;;;;;;7.95;65.93945;934.4138;;;;
2021/02/05 08:13:07;;;;;;;3.1;1.8;;;;;;;8.22;64.73242;934.3701;;;;
2021/02/05 08:15:32;;;;;;;2.3;1.3;;;;;;;8.58;61.90918;934.2794;;;;
2021/02/05 08:18:03;;;;;;;1.6;1.3;;;;;;;9.1;61.42871;934.4035;;;;
2021/02/05 08:20:37;;;;;;;1.5;1.2;;;;;;;9.35;59.88086;934.3661;;;;
2021/02/05 08:23:08;;;;;;;1.7;0.9;;;;;;;9.46;58.4375;934.3973;;;;
2021/02/05 08:25:33;;;;;;;1.7;1.2;;;;;;;9.4;58.11035;934.3656;;;;
2021/02/05 08:28:03;;;;;;;2.6;1.6;;;;;;;9.82;56.50293;934.3787;;;;
2021/02/05 08:30:39;;;;;;;1.5;1.1;;;;;;;10.11;56.24316;934.3289;;;;
2021/02/05 08:33:13;;;;;;;3.5;1;;;;;;;10.27;55.80957;934.3946;;;;
2021/02/05 08:35:40;;;;;;;4.1;1.8;;;;;;;10.48;55.93848;934.3742;;;;
2021/02/05 08:38:10;;;;;;;2.7;1.7;;;;;;;10.23;57.78906;934.353;;;;
2021/02/05 08:40:46;;;;;;;4;2.9;;;;;;;10.35;57.40625;934.4012;;;;
2021/02/05 08:43:23;;;;;;;2.4;1.5;;;;;;;10.44;57.00586;934.3478;;;;
2021/02/05 08:46:02;;;;;;;2.9;1.8;;;;;;;10.81;56.1875;934.4454;;;;
2021/02/05 08:48:27;;;;;;;3.3;1.8;;;;;;;10.72;55.9248;934.4341;;;;
2021/02/05 08:50:58;;;;;;;4.1;1.4;;;;;;;10.54;56.60938;934.4197;;;;
2021/02/05 08:53:24;;;;;;;1.4;1.2;;;;;;;10.49;56.05566;934.3575;;;;
2021/02/05 08:55:49;;;;;;;1.8;1.3;;;;;;;10.29;57.82031;934.4472;;;;
2021/02/05 08:58:16;;;;;;;3.4;1.2;;;;;;;10;56.58398;934.3161;;;;
2021/02/05 09:00:41;;;;;;;3;1.4;;;;;;;9.53;58.92676;934.389;;;;
2021/02/05 09:03:10;;;;;;;2.7;1.3;;;;;;;8.93;60.60645;934.3953;;;;
2021/02/05 09:05:36;;;;;;;3.2;1.1;;;;;;;8.66;62.5918;934.3948;;;;
2021/02/05 09:08:04;;;;;;;16.7;1.1;;;;;;;8.5;62.58105;934.3667;;;;
2021/02/05 09:10:29;;;;;;;0.8;0.7;;;;;;;8.45;61.37988;934.3954;;;;
2021/02/05 09:12:55;;;;;;;2.9;1.1;;;;;;;8.46;61.92676;934.4186;;;;
2021/02/05 09:15:21;;;;;;;4;1.5;;;;;;;8.41;63.79492;934.4372;;;;
2021/02/05 09:17:46;;;;;;;4.4;1.1;;;;;;;8.38;64.09668;934.4642;;;;
2021/02/05 09:20:11;;;;;;;3.4;1.4;;;;;;;8.2;63.56934;934.5059;;;;
2021/02/05 09:22:36;;;;;;;2.6;2;;;;;;;8.28;63.40039;934.5048;;;;
2021/02/05 09:25:02;;;;;;;5.2;2.1;;;;;;;8.2;63.87793;934.4077;;;;
2021/02/05 09:27:27;;;;;;;2.1;1.3;;;;;;;8.2;63.54688;934.3703;;;;
2021/02/05 09:29:52;;;;;;;5.2;2;;;;;;;8.17;64.76953;934.4422;;;;
2021/02/05 09:32:19;;;;;;;2.5;1.2;;;;;;;8.25;63.38477;934.4133;;;;
2021/02/05 09:34:44;;;;;;;0.9;0.8;;;;;;;8.29;62.87891;934.4636;;;;
2021/02/05 09:37:10;;;;;;;0.7;0.7;;;;;;;8.36;63.18457;934.4227;;;;
2021/02/05 09:39:35;;;;;;;2.6;1.2;;;;;;;8.47;62.10938;934.3837;;;;
2021/02/05 09:42:01;;;;;;;2.3;1.5;;;;;;;8.51;62.79785;934.2891;;;;
2021/02/05 09:44:26;;;;;;;9.7;1.6;;;;;;;8.51;63.00293;934.3572;;;;
2021/02/05 09:46:53;;;;;;;13.3;6.2;;;;;;;8.61;62.42773;934.3895;;;;
2021/02/05 09:49:18;;;;;;;2;1.5;;;;;;;8.77;61.8584;934.3697;;;;
2021/02/05 09:51:44;;;;;;;6.7;3.3;;;;;;;8.97;62.25098;934.3981;;;;
2021/02/05 09:54:09;;;;;;;2.6;1.1;;;;;;;8.97;61.4209;934.4076;;;;
2021/02/05 09:56:38;;;;;;;12;2;;;;;;;9.15;61.86719;934.4007;;;;
2021/02/05 09:59:03;;;;;;;11.4;3.3;;;;;;;9.35;62.08984;934.3574;;;;
2021/02/05 10:01:30;;;;;;;2.5;1.5;;;;;;;9.45;61.05566;934.4092;;;;
2021/02/05 10:03:55;;;;;;;79.8;34.4;;;;;;;9.68;60.63184;934.3506;;;;
2021/02/05 10:06:22;;;;;;;7.9;4.3;;;;;;;9.79;60.28418;934.3274;;;;
2021/02/05 10:08:48;;;;;;;5.9;2.2;;;;;;;10.02;59.72266;934.3014;;;;
2021/02/05 10:11:12;;;;;;;8.7;4.4;;;;;;;10.3;59.07617;934.3095;;;;
2021/02/05 10:13:38;;;;;;;10.3;2.7;;;;;;;10.53;59.39258;934.2924;;;;
2021/02/05 10:16:04;;;;;;;7.5;2.5;;;;;;;10.64;58.5625;934.2778;;;;
2021/02/05 10:18:29;;;;;;;6.6;2.3;;;;;;;10.72;58.27734;934.2788;;;;
2021/02/05 10:20:55;;;;;;;5.3;3.3;;;;;;;10.45;56.91699;934.2507;;;;
2021/02/05 10:23:20;;;;;;;7.9;2.1;;;;;;;10.25;58.35059;934.1956;;;;
2021/02/05 10:25:48;;;;;;;5.6;2.1;;;;;;;10.4;58.16504;934.3059;;;;
2021/02/05 10:28:14;;;;;;;2.3;1.2;;;;;;;10.67;57.90527;934.3169;;;;
2021/02/05 10:30:40;;;;;;;6.9;3.6;;;;;;;10.78;57.49707;934.22;;;;
2021/02/05 10:33:05;;;;;;;6.5;2.5;;;;;;;10.94;56.34082;934.1688;;;;
2021/02/05 10:35:30;;;;;;;19.5;3.5;;;;;;;11.1;55.98438;934.2034;;;;
2021/02/05 10:37:56;;;;;;;1.4;1.2;;;;;;;11.5;55.31543;934.1403;;;;
2021/02/05 10:40:21;;;;;;;8.1;2.4;;;;;;;11.83;54.45313;934.1015;;;;
2021/02/05 10:42:47;;;;;;;6.5;2;;;;;;;11.94;54.98145;934.0853;;;;
2021/02/05 10:45:13;;;;;;;3.9;1.2;;;;;;;11.96;54.62988;934.094;;;;
2021/02/05 10:47:40;;;;;;;1.5;0.7;;;;;;;12.12;51.6582;934.0348;;;;
2021/02/05 10:50:06;;;;;;;2.2;1.2;;;;;;;12.24;53.34668;933.9947;;;;
2021/02/05 10:52:31;;;;;;;1;0.8;;;;;;;12.18;52.81152;934.0193;;;;
2021/02/05 10:54:56;;;;;;;5.4;0.9;;;;;;;12.32;51.98145;933.9081;;;;
2021/02/05 10:57:21;;;;;;;4;1.5;;;;;;;12.46;51.64258;933.8503;;;;
2021/02/05 10:59:46;;;;;;;1.6;0.9;;;;;;;12.47;48.55762;933.8183;;;;
2021/02/05 11:02:17;;;;;;;7.5;2.7;;;;;;;12.59;50.22363;933.8192;;;;
2021/02/05 11:04:46;;;;;;;9.6;1.9;;;;;;;12.97;50.1416;933.7559;;;;
2021/02/05 11:07:11;;;;;;;1.7;0.8;;;;;;;13.31;49.13379;933.7726;;;;
2021/02/05 11:09:38;;;;;;;15.7;1.4;;;;;;;13.3;45.89258;933.6791;;;;
2021/02/05 11:12:03;;;;;;;1.4;0.6;;;;;;;13.58;46.86523;933.6049;;;;
2021/02/05 11:14:30;;;;;;;0.1;0.1;;;;;;;13.86;45.48047;933.6017;;;;
2021/02/05 11:16:55;;;;;;;1.1;0.4;;;;;;;13.94;44.61523;933.5016;;;;
2021/02/05 11:19:21;;;;;;;0.3;0.2;;;;;;;13.92;45.07227;933.4642;;;;
2021/02/05 11:21:46;;;;;;;4.1;0.5;;;;;;;13.89;44.87402;933.443;;;;
2021/02/05 11:24:12;;;;;;;0.7;0.1;;;;;;;13.69;44.29004;933.4368;;;;
2021/02/05 11:26:37;;;;;;;0.2;0.2;;;;;;;13.63;43.14453;933.3223;;;;
2021/02/05 11:29:04;;;;;;;0.1;0.1;;;;;;;13.4;43.44336;933.3447;;;;
2021/02/05 11:31:31;;;;;;;0.6;0.4;;;;;;;13.49;43.87793;933.2498;;;;
2021/02/05 11:33:55;;;;;;;0.3;0.3;;;;;;;13.91;43.35645;933.1707;;;;
2021/02/05 11:36:20;;;;;;;0.3;0.2;;;;;;;14.31;44.2373;933.1911;;;;
2021/02/05 11:38:45;;;;;;;0.4;0.3;;;;;;;14.58;43.42383;933.1775;;;;
2021/02/05 11:41:11;;;;;;;0.2;0.2;;;;;;;14.84;45.76758;933.1664;;;;
2021/02/05 11:43:36;;;;;;;0.3;0.2;;;;;;;14.71;43.1377;933.1351;;;;
2021/02/05 11:46:03;;;;;;;1.6;0.4;;;;;;;14.93;44.4502;933.1369;;;;
2021/02/05 11:48:29;;;;;;;0.2;0.2;;;;;;;14.72;43.875;933.1758;;;;
2021/02/05 11:50:54;;;;;;;0.3;0.2;;;;;;;14.4;45.37598;933.105;;;;
2021/02/05 11:53:19;;;;;;;0.1;0.1;;;;;;;14.44;44.64258;933.0401;;;;
2021/02/05 11:55:47;;;;;;;0.5;0.4;;;;;;;14.39;46.66602;933.0178;;;;
2021/02/05 11:58:12;;;;;;;5;1.2;;;;;;;14.79;46.73047;933.0314;;;;
2021/02/05 12:00:39;;;;;;;1.4;0.7;;;;;;;15.33;45.71582;932.9086;;;;
2021/02/05 12:03:04;;;;;;;1;0.5;;;;;;;15.77;44.61816;932.8959;;;;
2021/02/05 12:05:30;;;;;;;1.2;0.5;;;;;;;16.59;41.79492;932.897;;;;
2021/02/05 12:07:55;;;;;;;0.3;0.3;;;;;;;18.24;36.60547;932.8147;;;;
2021/02/05 12:10:20;;;;;;;0.9;0.5;;;;;;;19.93;34.13379;932.8167;;;;
2021/02/05 12:12:45;;;;;;;0.9;0.4;;;;;;;20.52;33.37305;932.8088;;;;
2021/02/05 12:15:13;;;;;;;0.2;0.1;;;;;;;22.36;30.11035;932.7319;;;;
2021/02/05 12:17:38;;;;;;;0.3;0.3;;;;;;;22.95;29.28125;932.7361;;;;
2021/02/05 12:20:03;;;;;;;0.8;0.3;;;;;;;22.83;27.47656;932.6903;;;;
2021/02/05 12:22:28;;;;;;;0.2;0.1;;;;;;;22.18;28.31543;932.6909;;;;
2021/02/05 12:24:56;;;;;;;1.3;0.6;;;;;;;23.18;27.27441;932.6694;;;;
2021/02/05 12:27:21;;;;;;;0.3;0.3;;;;;;;24.1;27.03613;932.6359;;;;
2021/02/05 12:29:47;;;;;;;0.6;0.3;;;;;;;25.29;25.86914;932.5451;;;;
2021/02/05 12:32:12;;;;;;;0.3;0.3;;;;;;;26.31;23.34863;932.5006;;;;
2021/02/05 12:34:39;;;;;;;1.4;0.4;;;;;;;26.77;22.74414;932.5781;;;;
2021/02/05 12:37:04;;;;;;;0.8;0.2;;;;;;;27.26;21.69043;932.485;;;;
2021/02/05 12:39:29;;;;;;;1;0.4;;;;;;;27.79;21.45508;932.4666;;;;
2021/02/05 12:41:54;;;;;;;0.9;0.2;;;;;;;28.4;20.44922;932.4771;;;;
2021/02/05 12:44:25;;;;;;;0;0;;;;;;;29.45;20.2832;932.4514;;;;
2021/02/05 12:46:52;;;;;;;0;0;;;;;;;30.44;19.2168;932.3911;;;;
2021/02/05 12:49:17;;;;;;;0.2;0.1;;;;;;;31.17;18.57715;932.394;;;;
2021/02/05 12:51:44;;;;;;;0.4;0.3;;;;;;;30.74;18.9541;932.3585;;;;
2021/02/05 12:54:09;;;;;;;0.2;0.1;;;;;;;31.02;18.43945;932.3661;;;;
2021/02/05 12:56:36;;;;;;;0.2;0.1;;;;;;;31.46;17.89551;932.4069;;;;
2021/02/05 12:59:01;;;;;;;3.9;0.2;;;;;;;31.53;17.79004;932.3915;;;;
2021/02/05 13:01:28;;;;;;;0.1;0.1;;;;;;;30.51;18.72949;932.3049;;;;
2021/02/05 13:03:54;;;;;;;0.2;0.1;;;;;;;29.7;18.67188;932.2811;;;;
2021/02/05 13:06:18;;;;;;;0.1;0.1;;;;;;;29.59;18.90527;932.2658;;;;
2021/02/05 13:08:43;;;;;;;0.2;0.2;;;;;;;28.87;19.51855;932.241;;;;
2021/02/05 13:11:08;;;;;;;0.2;0.1;;;;;;;28.52;19.88379;932.2255;;;;
2021/02/05 13:13:33;;;;;;;0.2;0.2;;;;;;;27.47;20.53809;932.2748;;;;
2021/02/05 13:15:58;;;;;;;0;0;;;;;;;26.36;21.70605;932.212;;;;
2021/02/05 13:18:26;;;;;;;0.1;0.1;;;;;;;26.05;22.00977;932.2101;;;;
2021/02/05 13:20:51;;;;;;;0.1;0.1;;;;;;;26.24;22.17285;932.2375;;;;
2021/02/05 13:23:17;;;;;;;0.1;0.1;;;;;;;27.4;21.41211;932.2009;;;;
2021/02/05 13:25:44;;;;;;;0;0;;;;;;;27.85;20.34082;932.1809;;;;
2021/02/05 13:28:10;;;;;;;0.3;0.1;;;;;;;28.13;20.02148;932.1448;;;;
2021/02/05 13:30:36;;;;;;;0.5;0.2;;;;;;;28.61;19.57813;932.1241;;;;
2021/02/05 13:33:10;;;;;;;0.2;0.2;;;;;;;29.02;19.16797;932.2136;;;;
2021/02/05 13:35:35;;;;;;;0.2;0;;;;;;;28.33;19.58984;932.2366;;;;
2021/02/05 13:38:00;;;;;;;0.9;0.4;;;;;;;28.77;19.49023;932.2292;;;;
2021/02/05 13:40:25;;;;;;;0.1;0.1;;;;;;;28.85;19.54199;932.2751;;;;
2021/02/05 13:42:50;;;;;;;0.2;0.2;;;;;;;28.99;19.9043;932.2414;;;;
2021/02/05 13:45:18;;;;;;;0.7;0.2;;;;;;;29.65;19.23047;932.1505;;;;
2021/02/05 13:47:43;;;;;;;0.2;0.2;;;;;;;30.1;18.87988;932.1906;;;;
2021/02/05 13:50:11;;;;;;;0.7;0.5;;;;;;;30.26;18.52832;932.2314;;;;
2021/02/05 13:52:36;;;;;;;0.1;0.1;;;;;;;30.47;18.52441;932.2215;;;;
2021/02/05 13:55:02;;;;;;;0.1;0.1;;;;;;;30.39;18.56836;932.2242;;;;
2021/02/05 13:57:27;;;;;;;0.2;0.1;;;;;;;30.16;18.7627;932.2441;;;;
2021/02/05 13:59:53;;;;;;;1.6;0.1;;;;;;;30.02;19.01953;932.2234;;;;
2021/02/05 14:02:18;;;;;;;0.1;0.1;;;;;;;30.23;19.02832;932.2311;;;;
2021/02/05 14:04:44;;;;;;;0.1;0.1;;;;;;;30.39;18.73633;932.2642;;;;
2021/02/05 14:07:09;;;;;;;0.1;0.1;;;;;;;29.75;18.91211;932.296;;;;
2021/02/05 14:09:35;;;;;;;0.1;0.1;;;;;;;29.56;19.66699;932.291;;;;
2021/02/05 14:12:01;;;;;;;2.4;0.3;;;;;;;29.74;19.3291;932.3155;;;;
2021/02/05 14:14:26;;;;;;;0.2;0.1;;;;;;;29.76;19.39063;932.3264;;;;
2021/02/05 14:16:51;;;;;;;0.1;0.1;;;;;;;29.19;20.00879;932.4169;;;;
2021/02/05 14:19:20;;;;;;;0.1;0.1;;;;;;;28.33;20.36328;932.443;;;;
2021/02/05 14:21:49;;;;;;;0.7;0.2;;;;;;;26.32;22.31934;932.4171;;;;
2021/02/05 14:24:14;;;;;;;0.3;0.2;;;;;;;24.84;24.33398;932.4534;;;;
2021/02/05 14:26:39;;;;;;;0;0;;;;;;;23.61;26.125;932.4289;;;;
2021/02/05 14:29:06;;;;;;;0.9;0.4;;;;;;;22.72;27.56348;932.4814;;;;
2021/02/05 14:31:32;;;;;;;1.2;0.7;;;;;;;21.46;30.14258;932.4451;;;;
2021/02/05 14:33:58;;;;;;;0.8;0.4;;;;;;;20.75;30.88867;932.4702;;;;
2021/02/05 14:36:23;;;;;;;1.5;0.6;;;;;;;19.64;32.73535;932.4947;;;;
2021/02/05 14:38:49;;;;;;;1.9;0.8;;;;;;;18.57;34.84277;932.4551;;;;
2021/02/05 14:41:14;;;;;;;0.3;0.3;;;;;;;18.12;35.8291;932.5472;;;;
2021/02/05 14:43:41;;;;;;;10.3;0.9;;;;;;;17.14;37.93945;932.5612;;;;
2021/02/05 14:46:07;;;;;;;1.8;0.7;;;;;;;16.38;39.85352;932.5743;;;;
2021/02/05 14:48:31;;;;;;;1.4;0.2;;;;;;;16.02;41.01172;932.4764;;;;
2021/02/05 14:50:58;;;;;;;1.2;0.6;;;;;;;15.93;40.98047;932.5293;;;;
2021/02/05 14:53:23;;;;;;;5.2;1.1;;;;;;;15.78;41.42871;932.5272;;;;
2021/02/05 14:55:55;;;;;;;1.6;0.5;;;;;;;15.92;41.56836;932.5425;;;;
2021/02/05 14:58:21;;;;;;;0.7;0.5;;;;;;;15.84;41.5957;932.5032;;;;
2021/02/05 15:00:46;;;;;;;0.5;0.3;;;;;;;15.5;42.86816;932.6147;;;;
2021/02/05 15:03:15;;;;;;;0.9;0.4;;;;;;;15.04;43.82715;932.6647;;;;
2021/02/05 15:05:43;;;;;;;1.9;0.6;;;;;;;15.18;43.56543;932.6542;;;;
2021/02/05 15:08:08;;;;;;;0.4;0.3;;;;;;;15.12;43.60449;932.6489;;;;
2021/02/05 15:10:43;;;;;;;1.4;0.3;;;;;;;14.56;44.97754;932.6763;;;;
2021/02/05 15:13:13;;;;;;;0.5;0.4;;;;;;;14.71;45.61621;932.6359;;;;
2021/02/05 15:15:41;;;;;;;0.5;0.4;;;;;;;15.01;45;932.6209;;;;
2021/02/05 15:18:11;;;;;;;1.1;0.8;;;;;;;14.59;45.78809;932.691;;;;
2021/02/05 15:20:36;;;;;;;0.1;0.1;;;;;;;14.53;45.05469;932.6592;;;;
2021/02/05 15:23:03;;;;;;;0.2;0.2;;;;;;;14.09;46.24219;932.7043;;;;
2021/02/05 15:25:37;;;;;;;0.6;0.3;;;;;;;13.96;47.11328;932.6722;;;;
2021/02/05 15:27:53;;;;;;;5.1;1;;;;;;;13.6;49.22559;932.6431;;;;
2021/02/05 15:30:21;;;;;;;2.2;0.7;;;;;;;13.36;50.56543;932.5798;;;;
2021/02/05 15:32:46;;;;;;;5.4;1.2;;;;;;;13.21;50.82324;932.4819;;;;
2021/02/05 15:35:21;;;;;;;9;2.1;;;;;;;12.63;52.94727;932.5325;;;;
2021/02/05 15:37:39;;;;;;;4.5;1.1;;;;;;;12.87;53.18359;932.5708;;;;
2021/02/05 15:40:06;;;;;;;2.2;0.8;;;;;;;12.74;53.4209;932.5692;;;;
2021/02/05 15:42:31;;;;;;;1.9;0.9;;;;;;;12.7;53.41504;932.5408;;;;